createdAt,value
2019-05-01T00:00:44.063Z,55.27
2019-05-01T00:01:44.239Z,70.58
2019-05-01T00:02:44.412Z,51.56
2019-05-01T00:03:44.588Z,48.34
2019-05-01T00:04:44.745Z,77.50
2019-05-01T00:05:44.907Z,58.17
2019-05-01T00:06:45.094Z,82.02
2019-05-01T00:07:45.265Z,43.02
2019-05-01T00:08:45.420Z,81.21
2019-05-01T00:09:45.601Z,42.06
2019-05-01T00:10:45.757Z,72.99
2019-05-01T00:11:45.922Z,46.89
2019-05-01T00:12:46.090Z,42.06
2019-05-01T00:13:46.232Z,70.25
2019-05-01T00:14:46.369Z,42.86
2019-05-01T00:15:46.533Z,43.34
2019-05-01T00:16:46.733Z,49.47
2019-05-01T00:17:46.906Z,61.71
2019-05-01T00:18:47.083Z,61.87
2019-05-01T00:19:47.245Z,46.57
2019-05-01T00:20:47.409Z,45.44
2019-05-01T00:21:47.617Z,40.28
2019-05-01T00:22:47.783Z,46.89
2019-05-01T00:23:47.966Z,48.98
2019-05-01T00:24:48.134Z,48.98
2019-05-01T00:25:48.307Z,75.89
2019-05-01T00:26:48.502Z,55.91
2019-05-01T00:27:48.701Z,44.79
2019-05-01T00:28:48.899Z,50.92
2019-05-01T00:29:49.059Z,41.09
2019-05-01T00:30:49.261Z,71.38
2019-05-01T00:31:49.440Z,49.15
2019-05-01T00:32:49.604Z,46.41
2019-05-01T00:33:49.806Z,47.86
2019-05-01T00:34:49.982Z,49.15
2019-05-01T00:35:50.162Z,50.92
2019-05-01T00:36:50.326Z,72.19
2019-05-01T00:37:50.495Z,47.86
2019-05-01T00:38:50.668Z,48.98
2019-05-01T00:39:50.848Z,48.66
2019-05-01T00:40:51.009Z,45.92
2019-05-01T00:41:51.159Z,71.54
2019-05-01T00:42:51.364Z,45.76
2019-05-01T00:43:51.579Z,71.54
2019-05-01T00:44:51.679Z,53.33
2019-05-01T00:45:51.842Z,51.08
2019-05-01T00:46:52.010Z,46.41
2019-05-01T00:47:52.196Z,45.92
2019-05-01T00:48:52.401Z,52.69
2019-05-01T00:49:52.577Z,44.31
2019-05-01T00:50:52.778Z,44.47
2019-05-01T00:51:52.956Z,43.18
2019-05-01T00:52:53.153Z,43.02
2019-05-01T00:53:53.355Z,46.41
2019-05-01T00:54:53.534Z,44.79
2019-05-01T00:55:53.711Z,47.86
2019-05-01T00:56:53.885Z,50.60
2019-05-01T00:57:54.047Z,52.85
2019-05-01T00:58:54.271Z,43.83
2019-05-01T00:59:54.445Z,50.43
2019-05-01T01:00:54.651Z,76.38
2019-05-01T01:01:54.822Z,48.50
2019-05-01T01:02:54.977Z,53.98
2019-05-01T01:03:55.122Z,47.86
2019-05-01T01:04:55.330Z,46.57
2019-05-01T01:05:55.535Z,47.86
2019-05-01T01:06:55.707Z,43.51
2019-05-01T01:07:55.874Z,46.25
2019-05-01T01:08:56.044Z,73.48
2019-05-01T01:09:56.205Z,66.87
2019-05-01T01:10:56.421Z,75.57
2019-05-01T01:11:56.618Z,46.57
2019-05-01T01:12:56.823Z,44.47
2019-05-01T01:13:57.014Z,46.89
2019-05-01T01:14:57.199Z,48.82
2019-05-01T01:15:57.369Z,44.63
2019-05-01T01:16:57.578Z,43.51
2019-05-01T01:17:57.758Z,46.41
2019-05-01T01:18:57.911Z,40.44
2019-05-01T01:19:58.067Z,43.02
2019-05-01T01:20:59.221Z,43.02
2019-05-01T01:21:58.389Z,46.57
2019-05-01T01:22:58.535Z,46.89
2019-05-01T01:23:58.694Z,43.02
2019-05-01T01:24:58.850Z,47.37
2019-05-01T01:26:00.042Z,50.11
2019-05-01T01:26:59.149Z,43.83
2019-05-01T01:27:59.303Z,44.47
2019-05-01T01:28:59.465Z,50.27
2019-05-01T01:29:59.637Z,47.37
2019-05-01T01:30:59.805Z,69.77
2019-05-01T01:31:59.980Z,46.57
2019-05-01T01:33:00.200Z,72.83
2019-05-01T01:34:00.377Z,44.63
2019-05-01T01:35:00.564Z,42.54
2019-05-01T01:36:00.716Z,47.05
2019-05-01T01:37:00.880Z,62.84
2019-05-01T01:38:01.056Z,56.72
2019-05-01T01:39:01.227Z,77.02
2019-05-01T01:40:01.457Z,43.18
2019-05-01T01:41:01.651Z,42.86
2019-05-01T01:42:01.818Z,41.09
2019-05-01T01:43:02.009Z,46.57
2019-05-01T01:44:02.200Z,42.06
2019-05-01T01:45:02.396Z,40.93
2019-05-01T01:46:02.573Z,46.08
2019-05-01T01:47:02.735Z,46.41
2019-05-01T01:48:02.949Z,49.47
2019-05-01T01:49:03.126Z,46.73
2019-05-01T01:50:03.320Z,44.96
2019-05-01T01:51:03.480Z,48.34
2019-05-01T01:52:03.672Z,41.57
2019-05-01T01:53:03.856Z,48.50
2019-05-01T01:54:05.064Z,74.60
2019-05-01T01:55:04.241Z,43.99
2019-05-01T01:56:04.436Z,48.34
2019-05-01T01:57:04.633Z,47.05
2019-05-01T01:58:04.841Z,44.79
2019-05-01T01:59:05.034Z,48.98
2019-05-01T02:00:05.259Z,46.89
2019-05-01T02:01:09.564Z,50.76
2019-05-01T02:02:06.586Z,74.77
2019-05-01T02:03:05.757Z,79.60
2019-05-01T02:04:05.964Z,41.89
2019-05-01T02:05:06.196Z,43.67
2019-05-01T02:06:06.404Z,51.08
2019-05-01T02:07:06.608Z,68.16
2019-05-01T02:08:08.932Z,52.53
2019-05-01T02:09:07.007Z,57.04
2019-05-01T02:10:07.288Z,54.79
2019-05-01T02:11:07.440Z,41.09
2019-05-01T02:12:07.648Z,45.60
2019-05-01T02:13:07.908Z,41.09
2019-05-01T02:14:08.093Z,41.89
2019-05-01T02:15:09.308Z,40.61
2019-05-01T02:16:08.473Z,42.22
2019-05-01T02:17:08.664Z,48.50
2019-05-01T02:18:08.896Z,43.83
2019-05-01T02:19:09.070Z,72.67
2019-05-01T02:20:10.229Z,52.05
2019-05-01T02:21:09.475Z,42.86
2019-05-01T02:22:09.632Z,57.52
2019-05-01T02:23:09.838Z,41.57
2019-05-01T02:24:09.987Z,44.15
2019-05-01T02:25:10.156Z,58.33
2019-05-01T02:26:10.292Z,64.13
2019-05-01T02:27:10.424Z,70.25
2019-05-01T02:28:10.618Z,78.96
2019-05-01T02:29:10.766Z,64.29
2019-05-01T02:30:10.923Z,44.63
2019-05-01T02:31:27.017Z,44.63
2019-05-01T02:32:13.303Z,44.47
2019-05-01T02:33:11.565Z,40.93
2019-05-01T02:34:11.694Z,40.61
2019-05-01T02:35:11.849Z,41.41
2019-05-01T02:36:12.000Z,45.60
2019-05-01T02:37:12.175Z,41.73
2019-05-01T02:38:12.379Z,43.99
2019-05-01T02:39:12.547Z,46.73
2019-05-01T02:40:12.714Z,46.41
2019-05-01T02:41:12.911Z,48.82
2019-05-01T02:42:13.107Z,49.95
2019-05-01T02:43:13.274Z,48.50
2019-05-01T02:44:13.481Z,54.46
2019-05-01T02:45:13.697Z,48.34
2019-05-01T02:46:13.860Z,49.79
2019-05-01T02:47:14.063Z,48.34
2019-05-01T02:48:14.224Z,50.11
2019-05-01T02:49:14.406Z,49.47
2019-05-01T02:50:14.628Z,67.03
2019-05-01T02:51:14.786Z,86.53
2019-05-01T02:52:14.965Z,88.46
2019-05-01T02:53:15.128Z,86.21
2019-05-01T02:54:15.286Z,89.11
2019-05-01T02:55:15.465Z,87.50
2019-05-01T02:56:15.646Z,87.17
2019-05-01T02:57:15.809Z,88.14
2019-05-01T02:58:15.990Z,88.78
2019-05-01T02:59:16.180Z,92.01
2019-05-01T03:00:16.396Z,91.68
2019-05-01T03:01:16.560Z,89.59
2019-05-01T03:02:16.740Z,88.78
2019-05-01T03:03:16.913Z,90.07
2019-05-01T03:04:17.091Z,98.94
2019-05-01T03:05:17.299Z,102.16
2019-05-01T03:06:17.455Z,103.45
2019-05-01T03:07:17.706Z,103.12
2019-05-01T03:08:17.856Z,102.16
2019-05-01T03:09:18.054Z,103.29
2019-05-01T03:10:18.218Z,104.74
2019-05-01T03:11:18.406Z,103.29
2019-05-01T03:12:18.561Z,102.48
2019-05-01T03:13:18.719Z,102.64
2019-05-01T03:14:18.893Z,103.45
2019-05-01T03:15:19.039Z,98.77
2019-05-01T03:16:19.222Z,103.61
2019-05-01T03:17:19.358Z,102.80
2019-05-01T03:18:19.490Z,100.06
2019-05-01T03:19:19.623Z,102.64
2019-05-01T03:20:19.785Z,101.84
2019-05-01T03:21:19.958Z,94.42
2019-05-01T03:22:20.117Z,79.28
2019-05-01T03:23:20.284Z,78.96
2019-05-01T03:24:20.426Z,72.83
2019-05-01T03:25:20.580Z,71.54
2019-05-01T03:26:20.715Z,70.74
2019-05-01T03:27:20.888Z,70.58
2019-05-01T03:28:21.031Z,81.05
2019-05-01T03:29:21.175Z,74.28
2019-05-01T03:30:21.329Z,58.01
2019-05-01T03:31:21.447Z,58.97
2019-05-01T03:32:21.625Z,58.33
2019-05-01T03:33:21.784Z,61.07
2019-05-01T03:34:21.935Z,71.87
2019-05-01T03:35:22.107Z,65.10
2019-05-01T03:36:22.247Z,57.52
2019-05-01T03:37:22.419Z,57.69
2019-05-01T03:38:22.590Z,59.30
2019-05-01T03:39:22.729Z,77.18
2019-05-01T03:40:22.936Z,58.33
2019-05-01T03:41:23.106Z,77.34
2019-05-01T03:42:23.285Z,59.14
2019-05-01T03:43:23.463Z,63.33
2019-05-01T03:44:23.628Z,59.94
2019-05-01T03:45:23.778Z,61.07
2019-05-01T03:46:23.932Z,60.10
2019-05-01T03:47:24.106Z,75.41
2019-05-01T03:48:24.288Z,59.94
2019-05-01T03:49:24.448Z,58.81
2019-05-01T03:50:24.560Z,58.65
2019-05-01T03:51:24.711Z,62.20
2019-05-01T03:52:24.875Z,78.31
2019-05-01T03:53:25.049Z,56.72
2019-05-01T03:54:25.256Z,57.85
2019-05-01T03:55:25.448Z,75.89
2019-05-01T03:56:25.636Z,59.62
2019-05-01T03:57:25.785Z,61.07
2019-05-01T03:58:25.967Z,77.50
2019-05-01T03:59:26.192Z,77.67
2019-05-01T04:00:26.359Z,54.62
2019-05-01T04:01:26.519Z,63.65
2019-05-01T04:02:33.582Z,50.92
2019-05-01T04:03:28.851Z,50.60
2019-05-01T04:04:27.005Z,65.10
2019-05-01T04:05:27.158Z,53.50
2019-05-01T04:06:27.336Z,49.63
2019-05-01T04:07:27.513Z,54.95
2019-05-01T04:08:27.689Z,53.66
2019-05-01T04:09:27.897Z,53.82
2019-05-01T04:10:28.075Z,53.66
2019-05-01T04:11:28.245Z,54.14
2019-05-01T04:12:28.375Z,54.95
2019-05-01T04:13:28.556Z,70.25
2019-05-01T04:14:28.746Z,64.78
2019-05-01T04:15:28.940Z,70.09
2019-05-01T04:16:29.102Z,65.58
2019-05-01T04:17:30.248Z,58.01
2019-05-01T04:18:29.486Z,61.71
2019-05-01T04:19:29.641Z,68.80
2019-05-01T04:20:29.788Z,70.25
2019-05-01T04:21:29.938Z,59.30
2019-05-01T04:22:30.079Z,58.33
2019-05-01T04:23:30.249Z,73.96
2019-05-01T04:24:30.421Z,57.20
2019-05-01T04:25:30.603Z,61.07
2019-05-01T04:26:30.762Z,68.96
2019-05-01T04:27:30.957Z,73.15
2019-05-01T04:28:31.107Z,60.59
2019-05-01T04:29:31.298Z,56.72
2019-05-01T04:30:31.497Z,68.16
2019-05-01T04:31:31.624Z,56.72
2019-05-01T04:32:50.313Z,68.96
2019-05-01T04:33:32.913Z,55.27
2019-05-01T04:34:32.150Z,62.52
2019-05-01T04:35:32.297Z,60.91
2019-05-01T04:36:32.466Z,61.39
2019-05-01T04:37:32.639Z,74.93
2019-05-01T04:38:33.813Z,61.87
2019-05-01T04:39:32.961Z,59.94
2019-05-01T04:40:34.156Z,71.70
2019-05-01T04:41:34.301Z,68.32
2019-05-01T04:42:33.429Z,66.23
2019-05-01T04:43:33.579Z,63.97
2019-05-01T04:44:33.769Z,61.71
2019-05-01T04:45:33.966Z,74.93
2019-05-01T04:46:34.158Z,72.99
2019-05-01T04:47:34.315Z,54.46
2019-05-01T04:48:34.480Z,75.09
2019-05-01T04:49:34.629Z,75.73
2019-05-01T04:50:34.784Z,71.87
2019-05-01T04:51:34.983Z,61.87
2019-05-01T04:52:35.158Z,73.15
2019-05-01T04:53:35.317Z,70.74
2019-05-01T04:54:35.487Z,59.78
2019-05-01T04:55:35.633Z,70.74
2019-05-01T04:56:35.830Z,70.74
2019-05-01T04:57:35.985Z,55.75
2019-05-01T04:58:36.140Z,68.32
2019-05-01T04:59:36.290Z,54.14
2019-05-01T05:00:36.442Z,56.88
2019-05-01T05:01:36.627Z,55.59
2019-05-01T05:02:36.763Z,54.14
2019-05-01T05:03:36.898Z,59.62
2019-05-01T05:04:37.050Z,60.10
2019-05-01T05:05:37.189Z,61.71
2019-05-01T05:06:37.352Z,61.39
2019-05-01T05:07:37.496Z,58.33
2019-05-01T05:08:37.644Z,58.17
2019-05-01T05:09:37.763Z,54.46
2019-05-01T05:10:37.898Z,58.17
2019-05-01T05:11:38.029Z,52.69
2019-05-01T05:12:38.162Z,52.69
2019-05-01T05:13:38.266Z,61.55
2019-05-01T05:14:38.402Z,52.21
2019-05-01T05:15:38.636Z,61.07
2019-05-01T05:16:38.877Z,55.27
2019-05-01T05:17:39.109Z,62.84
2019-05-01T05:18:39.359Z,59.62
2019-05-01T05:19:39.469Z,58.97
2019-05-01T05:20:39.594Z,58.33
2019-05-01T05:21:39.718Z,75.57
2019-05-01T05:22:39.840Z,83.31
2019-05-01T05:23:40.007Z,70.58
2019-05-01T05:24:40.147Z,59.94
2019-05-01T05:25:40.333Z,58.81
2019-05-01T05:26:40.471Z,52.53
2019-05-01T05:27:40.602Z,58.97
2019-05-01T05:28:40.755Z,57.36
2019-05-01T05:29:40.917Z,61.71
2019-05-01T05:30:41.061Z,58.01
2019-05-01T05:31:41.253Z,58.17
2019-05-01T05:32:41.376Z,59.94
2019-05-01T05:33:41.550Z,80.24
2019-05-01T05:34:41.713Z,54.30
2019-05-01T05:35:41.866Z,65.90
2019-05-01T05:36:42.021Z,73.15
2019-05-01T05:37:42.198Z,73.15
2019-05-01T05:38:42.374Z,72.19
2019-05-01T05:39:42.534Z,53.01
2019-05-01T05:40:42.703Z,48.34
2019-05-01T05:41:42.880Z,46.73
2019-05-01T05:42:43.065Z,70.74
2019-05-01T05:43:43.262Z,56.88
2019-05-01T05:44:43.424Z,45.76
2019-05-01T05:45:43.591Z,59.62
2019-05-01T05:46:43.760Z,74.12
2019-05-01T05:47:43.926Z,57.85
2019-05-01T05:48:44.095Z,53.17
2019-05-01T05:49:44.302Z,71.54
2019-05-01T05:50:44.507Z,63.16
2019-05-01T05:51:44.656Z,49.95
2019-05-01T05:52:44.832Z,76.38
2019-05-01T05:53:45.017Z,73.96
2019-05-01T05:54:45.233Z,58.17
2019-05-01T05:55:45.414Z,57.04
2019-05-01T05:56:45.581Z,55.27
2019-05-01T05:57:45.749Z,56.88
2019-05-01T05:58:45.901Z,63.81
2019-05-01T05:59:46.142Z,76.70
2019-05-01T06:00:46.295Z,71.22
2019-05-01T06:01:46.485Z,82.98
2019-05-01T06:02:46.664Z,58.01
2019-05-01T06:03:46.820Z,59.30
2019-05-01T06:04:46.994Z,82.82
2019-05-01T06:05:47.162Z,70.25
2019-05-01T06:06:47.347Z,69.77
2019-05-01T06:07:47.510Z,58.81
2019-05-01T06:08:47.669Z,60.75
2019-05-01T06:09:48.513Z,59.14
2019-05-01T06:10:49.042Z,58.01
2019-05-01T06:11:48.300Z,72.67
2019-05-01T06:12:48.662Z,58.65
2019-05-01T06:13:52.655Z,55.59
2019-05-01T06:14:49.758Z,54.46
2019-05-01T06:15:49.268Z,54.14
2019-05-01T06:16:52.196Z,69.93
2019-05-01T06:17:50.340Z,55.59
2019-05-01T06:18:49.575Z,61.23
2019-05-01T06:19:50.870Z,62.36
2019-05-01T06:20:50.901Z,70.25
2019-05-01T06:21:50.165Z,67.03
2019-05-01T06:22:50.306Z,71.06
2019-05-01T06:23:52.700Z,58.49
2019-05-01T06:24:52.674Z,58.81
2019-05-01T06:25:54.127Z,72.83
2019-05-01T06:26:53.135Z,68.96
2019-05-01T06:27:51.221Z,68.80
2019-05-01T06:28:51.372Z,70.09
2019-05-01T06:29:51.489Z,69.93
2019-05-01T06:30:51.637Z,59.78
2019-05-01T06:31:54.011Z,74.60
2019-05-01T06:32:53.907Z,72.67
2019-05-01T06:33:52.981Z,70.58
2019-05-01T06:34:53.306Z,68.32
2019-05-01T06:35:52.508Z,65.26
2019-05-01T06:36:52.772Z,63.33
2019-05-01T06:37:56.055Z,62.04
2019-05-01T06:38:55.029Z,75.09
2019-05-01T06:39:53.210Z,61.87
2019-05-01T06:40:58.117Z,63.33
2019-05-01T06:41:54.579Z,66.71
2019-05-01T06:42:53.831Z,68.16
2019-05-01T06:43:56.985Z,75.09
2019-05-01T06:44:56.208Z,71.22
2019-05-01T06:45:54.429Z,56.56
2019-05-01T06:46:58.291Z,72.83
2019-05-01T06:47:55.825Z,51.88
2019-05-01T06:48:54.985Z,81.05
2019-05-01T06:49:55.146Z,73.96
2019-05-01T06:50:55.340Z,57.69
2019-05-01T06:51:55.505Z,52.21
2019-05-01T06:52:55.679Z,49.15
2019-05-01T06:53:55.840Z,72.19
2019-05-01T06:54:55.988Z,53.50
2019-05-01T06:55:56.145Z,51.72
2019-05-01T06:56:56.303Z,55.11
2019-05-01T06:57:56.453Z,52.69
2019-05-01T06:58:56.638Z,67.68
2019-05-01T06:59:56.827Z,70.09
2019-05-01T07:00:56.963Z,52.69
2019-05-01T07:01:58.462Z,64.78
2019-05-01T07:02:58.287Z,60.42
2019-05-01T07:04:03.642Z,59.30
2019-05-01T07:04:59.787Z,51.88
2019-05-01T07:05:57.891Z,59.94
2019-05-01T07:07:01.971Z,69.77
2019-05-01T07:07:58.288Z,70.09
2019-05-01T07:08:58.428Z,72.03
2019-05-01T07:09:58.584Z,51.40
2019-05-01T07:10:58.730Z,53.82
2019-05-01T07:11:58.889Z,55.43
2019-05-01T07:12:59.851Z,70.90
2019-05-01T07:14:01.289Z,65.10
2019-05-01T07:14:59.522Z,76.22
2019-05-01T07:16:03.219Z,69.29
2019-05-01T07:16:59.922Z,71.06
2019-05-01T07:18:00.083Z,54.46
2019-05-01T07:19:05.726Z,54.62
2019-05-01T07:20:02.501Z,55.75
2019-05-01T07:21:00.758Z,61.55
2019-05-01T07:22:01.758Z,77.18
2019-05-01T07:23:02.034Z,72.67
2019-05-01T07:24:01.163Z,67.84
2019-05-01T07:25:04.129Z,68.64
2019-05-01T07:26:02.502Z,74.12
2019-05-01T07:27:01.611Z,50.92
2019-05-01T07:28:01.796Z,73.64
2019-05-01T07:29:06.061Z,77.02
2019-05-01T07:30:03.127Z,50.60
2019-05-01T07:31:05.034Z,60.91
2019-05-01T07:32:06.340Z,66.06
2019-05-01T07:33:03.602Z,66.71
2019-05-01T07:34:02.728Z,68.16
2019-05-01T07:35:03.987Z,48.02
2019-05-01T07:36:06.964Z,68.16
2019-05-01T07:37:04.194Z,74.60
2019-05-01T07:38:03.471Z,57.85
2019-05-01T07:39:03.430Z,57.69
2019-05-01T07:40:03.590Z,56.88
2019-05-01T07:41:05.206Z,70.58
2019-05-01T07:42:07.810Z,67.03
2019-05-01T07:43:04.113Z,66.87
2019-05-01T07:44:04.276Z,56.24
2019-05-01T07:45:08.376Z,46.25
2019-05-01T07:46:05.587Z,54.79
2019-05-01T07:47:04.721Z,72.19
2019-05-01T07:48:05.595Z,66.39
2019-05-01T07:49:06.112Z,57.20
2019-05-01T07:50:05.261Z,58.97
2019-05-01T07:51:07.109Z,70.74
2019-05-01T07:52:06.563Z,77.83
2019-05-01T07:53:05.729Z,75.89
2019-05-01T07:54:08.803Z,75.89
2019-05-01T07:55:07.132Z,53.82
2019-05-01T07:56:06.251Z,72.35
2019-05-01T07:57:06.405Z,71.70
2019-05-01T07:58:10.517Z,71.54
2019-05-01T07:59:07.668Z,71.38
2019-05-01T08:00:08.528Z,73.80
2019-05-01T08:01:07.989Z,72.03
2019-05-01T08:02:07.119Z,73.96
2019-05-01T08:03:08.347Z,62.36
2019-05-01T08:04:07.510Z,74.93
2019-05-01T08:05:09.959Z,72.19
2019-05-01T08:06:08.823Z,52.37
2019-05-01T08:07:08.099Z,61.39
2019-05-01T08:08:09.575Z,64.94
2019-05-01T08:09:11.355Z,71.54
2019-05-01T08:10:10.612Z,72.35
2019-05-01T08:11:10.346Z,71.54
2019-05-01T08:12:09.973Z,68.96
2019-05-01T08:13:09.088Z,60.10
2019-05-01T08:14:12.001Z,75.09
2019-05-01T08:15:11.440Z,60.91
2019-05-01T08:16:09.692Z,60.10
2019-05-01T08:17:12.919Z,72.35
2019-05-01T08:18:11.981Z,60.75
2019-05-01T08:19:10.195Z,73.15
2019-05-01T08:20:14.864Z,53.66
2019-05-01T08:21:11.477Z,68.00
2019-05-01T08:22:10.630Z,74.12
2019-05-01T08:23:12.111Z,70.09
2019-05-01T08:24:11.968Z,54.30
2019-05-01T08:25:11.203Z,73.80
2019-05-01T08:26:11.359Z,70.90
2019-05-01T08:27:15.572Z,72.19
2019-05-01T08:28:12.640Z,73.64
2019-05-01T08:29:11.897Z,71.06
2019-05-01T08:30:12.838Z,71.22
2019-05-01T08:31:14.292Z,69.45
2019-05-01T08:32:12.505Z,73.96
2019-05-01T08:33:14.544Z,72.19
2019-05-01T08:34:13.820Z,75.41
2019-05-01T08:35:12.950Z,58.49
2019-05-01T08:36:13.510Z,69.45
2019-05-01T08:37:17.802Z,70.09
2019-05-01T08:38:14.360Z,65.74
2019-05-01T08:39:13.983Z,68.64
2019-05-01T08:40:15.956Z,76.70
2019-05-01T08:41:16.086Z,65.58
2019-05-01T08:42:14.244Z,73.32
2019-05-01T08:43:18.105Z,65.26
2019-05-01T08:44:15.533Z,52.69
2019-05-01T08:45:14.670Z,55.91
2019-05-01T08:46:16.541Z,72.19
2019-05-01T08:47:16.043Z,69.77
2019-05-01T08:48:15.171Z,67.68
2019-05-01T08:49:15.341Z,75.41
2019-05-01T08:50:19.857Z,69.45
2019-05-01T08:51:16.633Z,68.32
2019-05-01T08:52:15.807Z,74.93
2019-05-01T08:53:18.117Z,71.38
2019-05-01T08:54:18.098Z,52.21
2019-05-01T08:55:16.215Z,50.11
2019-05-01T08:56:16.899Z,52.05
2019-05-01T08:57:18.542Z,67.68
2019-05-01T08:58:16.704Z,60.42
2019-05-01T08:59:19.418Z,72.99
2019-05-01T09:00:19.067Z,67.84
2019-05-01T09:01:17.195Z,58.49
2019-05-01T09:02:17.369Z,75.09
2019-05-01T09:03:18.839Z,71.87
2019-05-01T09:04:18.903Z,68.48
2019-05-01T09:05:28.207Z,56.24
2019-05-01T09:06:20.067Z,72.83
2019-05-01T09:07:19.137Z,70.74
2019-05-01T09:08:19.358Z,71.87
2019-05-01T09:09:18.486Z,72.19
2019-05-01T09:10:21.716Z,58.81
2019-05-01T09:11:19.868Z,63.65
2019-05-01T09:12:18.983Z,68.64
2019-05-01T09:13:23.778Z,65.26
2019-05-01T09:14:20.292Z,70.25
2019-05-01T09:15:19.421Z,100.22
2019-05-01T09:16:23.455Z,78.96
2019-05-01T09:17:20.730Z,74.28
2019-05-01T09:18:19.850Z,78.47
2019-05-01T09:19:20.028Z,70.09
2019-05-01T09:20:20.197Z,66.87
2019-05-01T09:21:20.331Z,58.65
2019-05-01T09:22:20.475Z,70.42
2019-05-01T09:23:20.642Z,65.42
2019-05-01T09:24:23.215Z,81.05
2019-05-01T09:25:22.956Z,71.38
2019-05-01T09:26:21.189Z,68.48
2019-05-01T09:27:23.829Z,75.09
2019-05-01T09:28:23.607Z,60.10
2019-05-01T09:29:21.854Z,69.13
2019-05-01T09:30:26.813Z,63.33
2019-05-01T09:31:23.223Z,71.22
2019-05-01T09:32:23.466Z,69.45
2019-05-01T09:33:26.106Z,64.29
2019-05-01T09:34:23.790Z,69.13
2019-05-01T09:35:22.902Z,68.48
2019-05-01T09:36:23.086Z,71.06
2019-05-01T09:37:23.263Z,67.84
2019-05-01T09:38:23.428Z,65.10
2019-05-01T09:39:23.603Z,72.03
2019-05-01T09:40:23.751Z,62.84
2019-05-01T09:41:23.959Z,75.25
2019-05-01T09:42:25.376Z,67.51
2019-05-01T09:43:24.309Z,65.74
2019-05-01T09:44:24.458Z,51.72
2019-05-01T09:45:24.640Z,70.09
2019-05-01T09:46:24.819Z,71.06
2019-05-01T09:47:24.972Z,73.64
2019-05-01T09:48:25.149Z,67.84
2019-05-01T09:49:25.287Z,67.03
2019-05-01T09:50:25.991Z,52.21
2019-05-01T09:51:26.630Z,61.71
2019-05-01T09:52:25.746Z,75.25
2019-05-01T09:53:29.724Z,48.34
2019-05-01T09:54:27.025Z,53.17
2019-05-01T09:55:26.174Z,48.50
2019-05-01T09:56:26.336Z,69.45
2019-05-01T09:57:26.533Z,71.06
2019-05-01T09:58:26.703Z,75.57
2019-05-01T09:59:26.862Z,70.25
2019-05-01T10:00:27.024Z,75.09
2019-05-01T10:01:31.712Z,84.76
2019-05-01T10:02:29.367Z,84.76
2019-05-01T10:03:27.488Z,85.88
2019-05-01T10:04:30.170Z,83.63
2019-05-01T10:05:29.357Z,84.76
2019-05-01T10:06:27.959Z,84.27
2019-05-01T10:07:29.109Z,73.15
2019-05-01T10:08:29.288Z,73.80
2019-05-01T10:09:28.426Z,72.99
2019-05-01T10:10:29.326Z,74.60
2019-05-01T10:11:29.785Z,78.79
2019-05-01T10:12:28.947Z,66.71
2019-05-01T10:13:29.180Z,78.31
2019-05-01T10:14:31.602Z,64.78
2019-05-01T10:15:31.543Z,70.74
2019-05-01T10:16:29.677Z,73.96
2019-05-01T10:17:29.856Z,70.25
2019-05-01T10:18:30.032Z,74.28
2019-05-01T10:19:30.195Z,73.64
2019-05-01T10:20:30.345Z,74.28
2019-05-01T10:21:30.539Z,76.86
2019-05-01T10:22:32.990Z,84.43
2019-05-01T10:23:32.983Z,76.38
2019-05-01T10:24:32.114Z,61.39
2019-05-01T10:25:33.312Z,65.26
2019-05-01T10:26:31.559Z,66.55
2019-05-01T10:27:35.701Z,60.91
2019-05-01T10:28:32.929Z,72.35
2019-05-01T10:29:32.056Z,59.94
2019-05-01T10:30:36.279Z,55.75
2019-05-01T10:31:33.436Z,70.90
2019-05-01T10:32:32.569Z,61.71
2019-05-01T10:33:32.970Z,73.32
2019-05-01T10:34:32.956Z,66.06
2019-05-01T10:35:42.385Z,71.87
2019-05-01T10:36:35.345Z,66.06
2019-05-01T10:37:35.457Z,77.67
2019-05-01T10:38:33.806Z,80.41
2019-05-01T10:39:33.963Z,78.47
2019-05-01T10:40:34.376Z,77.83
2019-05-01T10:41:35.360Z,79.12
2019-05-01T10:42:34.488Z,74.93
2019-05-01T10:43:34.688Z,74.93
2019-05-01T10:44:34.850Z,73.64
2019-05-01T10:45:35.019Z,72.83
2019-05-01T10:46:35.203Z,72.83
2019-05-01T10:47:35.391Z,72.99
2019-05-01T10:48:35.579Z,71.38
2019-05-01T10:49:35.745Z,70.58
2019-05-01T10:50:35.912Z,65.90
2019-05-01T10:51:36.084Z,73.64
2019-05-01T10:52:36.266Z,68.96
2019-05-01T10:53:36.452Z,70.58
2019-05-01T10:54:36.630Z,63.97
2019-05-01T10:55:36.830Z,58.97
2019-05-01T10:56:37.047Z,69.13
2019-05-01T10:57:40.646Z,69.45
2019-05-01T10:58:38.482Z,68.64
2019-05-01T10:59:37.617Z,75.89
2019-05-01T11:00:37.826Z,68.64
2019-05-01T11:01:38.005Z,69.93
2019-05-01T11:02:38.249Z,71.06
2019-05-01T11:03:38.433Z,67.19
2019-05-01T11:04:38.643Z,70.09
2019-05-01T11:05:38.824Z,72.83
2019-05-01T11:06:39.015Z,59.78
2019-05-01T11:07:39.192Z,63.00
2019-05-01T11:08:39.410Z,76.22
2019-05-01T11:09:39.571Z,73.96
2019-05-01T11:10:39.740Z,72.19
2019-05-01T11:11:39.922Z,69.77
2019-05-01T11:12:40.106Z,57.69
2019-05-01T11:13:40.240Z,71.22
2019-05-01T11:14:40.425Z,72.35
2019-05-01T11:15:40.691Z,66.23
2019-05-01T11:16:40.724Z,72.35
2019-05-01T11:17:40.947Z,73.96
2019-05-01T11:18:41.129Z,76.54
2019-05-01T11:19:41.342Z,74.28
2019-05-01T11:20:41.494Z,74.12
2019-05-01T11:21:41.690Z,67.84
2019-05-01T11:22:41.854Z,80.57
2019-05-01T11:23:42.022Z,62.20
2019-05-01T11:24:42.209Z,67.84
2019-05-01T11:25:44.644Z,70.58
2019-05-01T11:26:42.520Z,69.93
2019-05-01T11:27:42.690Z,67.03
2019-05-01T11:28:42.845Z,66.55
2019-05-01T11:29:43.020Z,68.96
2019-05-01T11:30:43.180Z,72.35
2019-05-01T11:31:43.407Z,66.06
2019-05-01T11:32:43.654Z,70.74
2019-05-01T11:33:43.815Z,70.74
2019-05-01T11:34:43.988Z,73.32
2019-05-01T11:35:44.188Z,73.64
2019-05-01T11:36:44.369Z,69.93
2019-05-01T11:37:44.544Z,72.19
2019-05-01T11:38:44.714Z,72.99
2019-05-01T11:39:44.928Z,67.03
2019-05-01T11:40:45.086Z,66.23
2019-05-01T11:41:45.240Z,68.00
2019-05-01T11:42:45.422Z,68.96
2019-05-01T11:43:45.590Z,69.93
2019-05-01T11:44:46.786Z,71.38
2019-05-01T11:45:45.937Z,69.77
2019-05-01T11:46:46.108Z,72.51
2019-05-01T11:47:46.294Z,68.96
2019-05-01T11:48:46.471Z,66.55
2019-05-01T11:49:46.652Z,57.52
2019-05-01T11:50:46.858Z,70.25
2019-05-01T11:51:47.050Z,70.09
2019-05-01T11:52:47.217Z,54.79
2019-05-01T11:53:47.392Z,63.33
2019-05-01T11:54:47.577Z,73.15
2019-05-01T11:55:47.763Z,74.12
2019-05-01T11:56:47.905Z,55.43
2019-05-01T11:57:48.092Z,62.52
2019-05-01T11:58:48.213Z,70.58
2019-05-01T11:59:48.352Z,70.42
2019-05-01T12:00:48.505Z,67.03
2019-05-01T12:01:48.697Z,69.93
2019-05-01T12:02:48.868Z,69.61
2019-05-01T12:03:49.006Z,56.56
2019-05-01T12:04:49.268Z,50.92
2019-05-01T12:05:49.465Z,70.74
2019-05-01T12:06:49.628Z,62.20
2019-05-01T12:07:49.791Z,49.79
2019-05-01T12:08:49.940Z,62.20
2019-05-01T12:09:50.088Z,71.70
2019-05-01T12:10:50.290Z,66.71
2019-05-01T12:11:50.444Z,72.83
2019-05-01T12:12:50.596Z,65.58
2019-05-01T12:13:50.726Z,62.04
2019-05-01T12:14:50.854Z,67.03
2019-05-01T12:15:51.008Z,51.88
2019-05-01T12:16:51.169Z,70.90
2019-05-01T12:17:51.332Z,72.35
2019-05-01T12:18:51.486Z,69.45
2019-05-01T12:19:51.704Z,54.79
2019-05-01T12:20:51.881Z,61.55
2019-05-01T12:21:52.299Z,70.74
2019-05-01T12:22:52.207Z,70.58
2019-05-01T12:23:52.376Z,63.97
2019-05-01T12:24:52.561Z,71.06
2019-05-01T12:25:52.744Z,67.19
2019-05-01T12:26:52.929Z,70.74
2019-05-01T12:27:53.103Z,72.19
2019-05-01T12:28:53.248Z,70.09
2019-05-01T12:29:53.410Z,67.84
2019-05-01T12:30:53.546Z,62.20
2019-05-01T12:31:53.726Z,61.55
2019-05-01T12:32:53.879Z,75.73
2019-05-01T12:33:54.021Z,76.05
2019-05-01T12:34:54.168Z,77.67
2019-05-01T12:35:54.302Z,70.09
2019-05-01T12:36:54.467Z,74.77
2019-05-01T12:37:55.454Z,69.29
2019-05-01T12:38:55.717Z,73.64
2019-05-01T12:39:54.836Z,71.87
2019-05-01T12:40:54.966Z,71.70
2019-05-01T12:41:55.134Z,68.96
2019-05-01T12:42:55.242Z,71.06
2019-05-01T12:43:55.421Z,71.22
2019-05-01T12:44:55.577Z,68.96
2019-05-01T12:45:55.769Z,70.74
2019-05-01T12:46:55.908Z,67.51
2019-05-01T12:47:56.086Z,65.58
2019-05-01T12:48:56.224Z,64.29
2019-05-01T12:49:56.374Z,65.58
2019-05-01T12:50:56.521Z,73.48
2019-05-01T12:52:09.628Z,66.39
2019-05-01T12:52:58.056Z,71.54
2019-05-01T12:53:58.019Z,66.55
2019-05-01T12:54:57.254Z,61.71